createdAt,value
2019-02-12T00:00:40.938Z,8.87
2019-02-12T00:03:09.984Z,11.20
2019-02-12T00:05:38.978Z,12.17
2019-02-12T00:08:08.220Z,8.37
2019-02-12T00:10:37.302Z,10.90
2019-02-12T00:13:06.363Z,13.57
2019-02-12T00:15:35.714Z,9.43
2019-02-12T00:18:04.880Z,13.27
2019-02-12T00:20:35.225Z,12.33
2019-02-12T00:23:04.482Z,10.37
2019-02-12T00:25:33.564Z,12.03
2019-02-12T00:28:02.684Z,15.40
2019-02-12T00:30:31.914Z,7.67
2019-02-12T00:33:00.970Z,7.60
2019-02-12T00:35:29.985Z,9.67
2019-02-12T00:37:59.194Z,5.63
2019-02-12T00:40:28.267Z,5.80
2019-02-12T00:42:57.314Z,9.93
2019-02-12T00:45:26.487Z,8.90
2019-02-12T00:47:55.471Z,16.33
2019-02-12T00:50:24.462Z,8.73
2019-02-12T00:52:53.771Z,10.37
2019-02-12T00:55:22.827Z,9.70
2019-02-12T00:57:51.879Z,12.17
2019-02-12T01:00:22.978Z,5.67
2019-02-12T01:02:51.887Z,11.10
2019-02-12T01:05:20.946Z,5.53
2019-02-12T01:07:50.205Z,8.40
2019-02-12T01:10:19.353Z,4.67
2019-02-12T01:12:48.373Z,7.57
2019-02-12T01:15:17.530Z,8.97
2019-02-12T01:17:46.613Z,7.97
2019-02-12T01:20:15.638Z,5.60
2019-02-12T01:22:45.484Z,8.37
2019-02-12T01:25:14.527Z,9.33
2019-02-12T01:27:43.757Z,5.47
2019-02-12T01:30:16.828Z,12.73
2019-02-12T01:32:45.878Z,13.27
2019-02-12T01:35:14.935Z,7.37
2019-02-12T01:37:44.243Z,10.83
2019-02-12T01:40:14.166Z,8.25
2019-02-12T01:42:43.473Z,7.17
2019-02-12T01:45:13.617Z,12.13
2019-02-12T01:47:42.684Z,8.77
2019-02-12T01:50:13.463Z,8.27
2019-02-12T01:52:42.815Z,9.23
2019-02-12T01:55:11.780Z,9.30
2019-02-12T01:57:40.826Z,7.47
2019-02-12T02:00:15.236Z,9.67
2019-02-12T02:02:44.668Z,9.80
2019-02-12T02:05:13.788Z,8.53
2019-02-12T02:07:43.020Z,10.10
2019-02-12T02:10:14.791Z,8.27
2019-02-12T02:12:44.276Z,7.23
2019-02-12T02:15:13.582Z,11.43
2019-02-12T02:17:42.648Z,10.77
2019-02-12T02:20:12.686Z,9.93
2019-02-12T02:22:41.740Z,11.67
2019-02-12T02:25:11.096Z,11.97
2019-02-12T02:27:40.216Z,9.50
2019-02-12T02:30:10.612Z,8.77
2019-02-12T02:32:39.691Z,8.73
2019-02-12T02:35:09.202Z,7.43
2019-02-12T02:37:38.287Z,7.97
2019-02-12T02:40:08.038Z,8.53
2019-02-12T02:42:37.913Z,7.17
2019-02-12T02:45:07.497Z,6.43
2019-02-12T02:47:36.577Z,8.83
2019-02-12T02:50:06.271Z,11.83
2019-02-12T02:52:35.496Z,8.97
2019-02-12T02:55:04.838Z,7.43
2019-02-12T02:57:33.990Z,8.30
2019-02-12T03:00:03.151Z,9.63
2019-02-12T03:02:32.291Z,11.10
2019-02-12T03:05:01.702Z,8.40
2019-02-12T03:07:30.857Z,10.67
2019-02-12T03:10:00.833Z,11.85
2019-02-12T03:12:30.033Z,7.47
2019-02-12T03:14:59.027Z,9.87
2019-02-12T03:17:28.029Z,9.23
2019-02-12T03:19:57.214Z,18.90
2019-02-12T03:22:26.208Z,16.30
2019-02-12T03:24:55.475Z,13.00
2019-02-12T03:27:24.913Z,20.50
2019-02-12T03:29:53.888Z,14.37
2019-02-12T03:32:23.006Z,15.47
2019-02-12T03:34:52.303Z,10.77
2019-02-12T03:37:21.228Z,12.10
2019-02-12T03:39:50.224Z,12.77
2019-02-12T03:42:19.532Z,12.13
2019-02-12T03:44:48.661Z,14.80
2019-02-12T03:47:17.731Z,12.37
2019-02-12T03:49:47.891Z,12.93
2019-02-12T03:52:16.958Z,19.73
2019-02-12T03:54:46.041Z,20.13
2019-02-12T03:57:15.287Z,10.77
2019-02-12T03:59:44.462Z,11.27
2019-02-12T04:02:13.524Z,10.37
2019-02-12T04:04:42.783Z,16.00
2019-02-12T04:07:11.780Z,14.30
2019-02-12T04:09:40.856Z,13.47
2019-02-12T04:12:10.279Z,16.73
2019-02-12T04:14:39.339Z,16.17
2019-02-12T04:17:08.307Z,18.07
2019-02-12T04:19:37.557Z,15.90
2019-02-12T04:22:06.802Z,14.03
2019-02-12T04:24:35.899Z,10.03
2019-02-12T04:27:05.155Z,14.07
2019-02-12T04:29:34.181Z,15.73
2019-02-12T04:32:03.260Z,9.90
2019-02-12T04:34:32.430Z,13.03
2019-02-12T04:37:01.499Z,13.73
2019-02-12T04:39:30.574Z,17.10
2019-02-12T04:41:59.819Z,15.83
2019-02-12T04:44:28.752Z,20.80
2019-02-12T04:46:57.744Z,14.90
2019-02-12T04:49:27.000Z,11.60
2019-02-12T04:51:56.023Z,14.03
2019-02-12T04:54:25.106Z,13.93
2019-02-12T04:56:54.392Z,17.53
2019-02-12T04:59:23.453Z,13.93
2019-02-12T05:01:52.528Z,12.77
2019-02-12T05:04:21.686Z,14.30
2019-02-12T05:06:50.749Z,12.45
2019-02-12T05:09:22.014Z,18.17
2019-02-12T05:11:53.567Z,13.80
2019-02-12T05:14:22.975Z,11.20
2019-02-12T05:16:51.953Z,9.80
2019-02-12T05:19:20.963Z,9.30
2019-02-12T05:21:50.361Z,13.00
2019-02-12T05:24:19.839Z,17.40
2019-02-12T05:26:48.836Z,10.83
2019-02-12T05:29:18.468Z,9.70
2019-02-12T05:31:47.780Z,12.03
2019-02-12T05:34:16.813Z,10.37
2019-02-12T05:36:46.164Z,12.70
2019-02-12T05:39:15.435Z,9.57
2019-02-12T05:41:44.507Z,10.63
2019-02-12T05:44:13.638Z,15.87
2019-02-12T05:46:42.700Z,12.43
2019-02-12T05:49:11.765Z,15.00
2019-02-12T05:51:40.943Z,13.00
2019-02-12T05:54:10.026Z,19.10
2019-02-12T05:56:39.030Z,9.13
2019-02-12T05:59:08.334Z,12.90
2019-02-12T06:01:37.355Z,18.17
2019-02-12T06:04:07.534Z,16.23
2019-02-12T06:06:36.882Z,11.37
2019-02-12T06:09:06.299Z,12.00
2019-02-12T06:11:35.256Z,10.57
2019-02-12T06:14:04.643Z,11.47
2019-02-12T06:16:33.650Z,13.57
2019-02-12T06:19:02.864Z,10.97
2019-02-12T06:21:32.028Z,15.47
2019-02-12T06:24:01.163Z,15.13
2019-02-12T06:26:30.292Z,17.93
2019-02-12T06:28:59.386Z,8.93
2019-02-12T06:31:28.848Z,15.30
2019-02-12T06:33:57.823Z,21.00
2019-02-12T06:36:27.108Z,18.83
2019-02-12T06:38:56.090Z,14.93
2019-02-12T06:41:25.070Z,16.53
2019-02-12T06:43:54.190Z,12.97
2019-02-12T06:46:23.277Z,17.57
2019-02-12T06:48:52.352Z,16.17
2019-02-12T06:51:21.478Z,15.47
2019-02-12T06:53:50.552Z,16.33
2019-02-12T06:56:19.540Z,12.63
2019-02-12T06:58:48.860Z,15.70
2019-02-12T07:01:18.039Z,20.73
2019-02-12T07:03:53.196Z,13.50
2019-02-12T07:06:37.598Z,14.10
2019-02-12T07:09:26.214Z,13.23
2019-02-12T07:12:35.165Z,14.27
2019-02-12T07:15:23.644Z,12.87
2019-02-12T07:18:19.998Z,16.17
2019-02-12T07:21:28.295Z,17.23
2019-02-12T07:24:40.367Z,14.33
2019-02-12T07:28:02.931Z,17.03
2019-02-12T07:31:11.949Z,14.70
2019-02-12T07:34:12.993Z,13.33
2019-02-12T07:37:24.144Z,12.23
2019-02-12T07:40:13.040Z,15.83
2019-02-12T07:43:32.349Z,15.37
2019-02-12T07:46:38.513Z,18.97
2019-02-12T07:49:38.699Z,14.77
2019-02-12T07:52:45.239Z,17.13
2019-02-12T07:56:07.039Z,15.30
2019-02-12T07:59:13.647Z,15.47
2019-02-12T08:02:20.165Z,16.40
2019-02-12T08:05:45.743Z,16.47
2019-02-12T08:08:51.980Z,16.83
2019-02-12T08:11:31.011Z,18.17
2019-02-12T08:14:46.014Z,15.63
2019-02-12T08:17:36.166Z,13.57
2019-02-12T08:20:31.944Z,15.20
2019-02-12T08:23:54.029Z,16.93
2019-02-12T08:26:57.644Z,13.90
2019-02-12T08:29:54.557Z,12.33
2019-02-12T08:32:58.934Z,15.27
2019-02-12T08:35:57.046Z,12.53
2019-02-12T08:39:14.422Z,9.83
2019-02-12T08:42:36.614Z,15.87
2019-02-12T08:45:29.682Z,14.23
2019-02-12T08:48:37.878Z,18.13
2019-02-12T08:51:31.444Z,16.63
2019-02-12T08:54:43.321Z,12.20
2019-02-12T08:58:01.200Z,15.23
2019-02-12T09:01:04.684Z,16.47
2019-02-12T09:04:13.194Z,19.47
2019-02-12T09:07:22.073Z,14.20
2019-02-12T09:10:17.707Z,17.00
2019-02-12T09:13:13.147Z,13.87
2019-02-12T09:16:28.309Z,11.20
2019-02-12T09:19:47.651Z,13.77
2019-02-12T09:23:00.890Z,11.37
2019-02-12T09:25:47.701Z,12.47
2019-02-12T09:28:25.561Z,18.33
2019-02-12T09:31:34.477Z,15.13
2019-02-12T09:34:40.624Z,10.40
2019-02-12T09:37:55.477Z,11.87
2019-02-12T09:41:01.323Z,11.87
2019-02-12T09:43:59.911Z,13.83
2019-02-12T09:47:21.917Z,9.77
2019-02-12T09:50:19.512Z,14.87
2019-02-12T09:53:24.082Z,15.97
2019-02-12T09:56:35.722Z,18.30
2019-02-12T09:59:11.155Z,16.33
2019-02-12T10:02:09.257Z,14.80
2019-02-12T10:05:17.296Z,18.97
2019-02-12T10:08:23.058Z,15.23
2019-02-12T10:11:28.583Z,20.43
2019-02-12T10:14:09.369Z,17.07
2019-02-12T10:16:57.613Z,18.13
2019-02-12T10:19:48.939Z,16.07
2019-02-12T10:22:41.405Z,17.60
2019-02-12T10:25:40.733Z,17.83
2019-02-12T10:28:48.662Z,22.23
2019-02-12T10:31:27.380Z,13.57
2019-02-12T10:33:56.686Z,14.90
2019-02-12T10:36:25.715Z,18.20
2019-02-12T10:38:54.958Z,17.17
2019-02-12T10:41:24.019Z,14.50
2019-02-12T10:43:53.772Z,16.07
2019-02-12T10:46:22.953Z,14.33
2019-02-12T10:48:52.842Z,15.63
2019-02-12T10:51:21.956Z,16.60
2019-02-12T10:53:51.232Z,14.97
2019-02-12T10:56:20.297Z,19.70
2019-02-12T10:58:49.357Z,18.60
2019-02-12T11:01:18.482Z,16.03
2019-02-12T11:03:48.452Z,21.43
2019-02-12T11:06:17.442Z,17.97
2019-02-12T11:08:46.652Z,17.07
2019-02-12T11:11:15.751Z,18.03
2019-02-12T11:13:44.902Z,14.27
2019-02-12T11:16:14.172Z,18.00
2019-02-12T11:18:43.256Z,19.93
2019-02-12T11:21:12.538Z,16.00
2019-02-12T11:23:41.973Z,17.97
2019-02-12T11:26:11.090Z,16.57
2019-02-12T11:28:41.019Z,12.63
2019-02-12T11:31:10.339Z,14.70
2019-02-12T11:33:39.403Z,16.27
2019-02-12T11:36:08.516Z,16.60
2019-02-12T11:38:37.583Z,11.73
2019-02-12T11:41:06.639Z,13.80
2019-02-12T11:43:35.728Z,14.47
2019-02-12T11:46:04.951Z,13.63
2019-02-12T11:48:34.075Z,13.03
2019-02-12T11:51:03.137Z,15.00
2019-02-12T11:53:32.340Z,16.73
2019-02-12T11:56:01.335Z,14.43
2019-02-12T11:58:30.396Z,12.13
2019-02-12T12:01:04.099Z,12.73
2019-02-12T12:03:33.253Z,15.50
2019-02-12T12:06:02.366Z,14.93
2019-02-12T12:08:31.586Z,12.00
2019-02-12T12:11:00.721Z,13.43
2019-02-12T12:13:29.723Z,13.50
2019-02-12T12:15:58.926Z,14.83
2019-02-12T12:18:27.987Z,18.20
2019-02-12T12:20:57.758Z,12.83
2019-02-12T12:23:26.834Z,13.07
2019-02-12T12:25:55.904Z,12.50
2019-02-12T12:28:25.129Z,10.87
2019-02-12T12:30:54.266Z,13.60
2019-02-12T12:33:23.407Z,11.10
2019-02-12T12:35:52.524Z,11.40
2019-02-12T12:38:21.750Z,11.87
2019-02-12T12:40:50.722Z,10.53
2019-02-12T12:43:19.806Z,11.23
2019-02-12T12:45:49.182Z,10.17
2019-02-12T12:48:18.738Z,12.37
2019-02-12T12:50:47.831Z,10.93
2019-02-12T12:53:16.962Z,8.87
2019-02-12T12:55:46.060Z,11.13
2019-02-12T12:58:15.147Z,9.47
2019-02-12T13:00:44.362Z,10.17
2019-02-12T13:03:13.754Z,11.97
2019-02-12T13:05:42.900Z,12.23
2019-02-12T13:08:12.254Z,12.33
2019-02-12T13:10:41.472Z,12.73
2019-02-12T13:13:10.582Z,10.33
2019-02-12T13:15:39.771Z,11.10
2019-02-12T13:18:08.746Z,8.97
2019-02-12T13:20:37.902Z,11.53
2019-02-12T13:23:07.151Z,10.03
2019-02-12T13:25:36.214Z,10.07
2019-02-12T13:28:05.279Z,11.23
2019-02-12T13:30:34.422Z,9.73
2019-02-12T13:33:03.484Z,7.77
2019-02-12T13:35:32.531Z,7.50
2019-02-12T13:38:01.660Z,4.97
2019-02-12T13:40:30.691Z,12.33
2019-02-12T13:42:59.682Z,4.50
2019-02-12T13:45:28.880Z,7.50
2019-02-12T13:47:58.050Z,7.03
2019-02-12T13:50:27.026Z,4.93
2019-02-12T13:52:56.167Z,5.77
2019-02-12T13:55:25.657Z,5.67
2019-02-12T13:57:54.717Z,5.67
2019-02-12T14:00:24.374Z,17.77
2019-02-12T14:02:53.467Z,4.43
2019-02-12T14:05:22.600Z,5.37
2019-02-12T14:07:51.767Z,5.80
2019-02-12T14:10:20.743Z,6.20
2019-02-12T14:12:49.837Z,5.20
2019-02-12T14:15:18.959Z,6.53
2019-02-12T14:17:47.879Z,7.00
2019-02-12T14:20:17.042Z,7.77
2019-02-12T14:22:46.250Z,7.50
2019-02-12T14:25:15.343Z,10.47
2019-02-12T14:27:44.329Z,4.80
2019-02-12T14:30:14.219Z,6.70
2019-02-12T14:32:43.260Z,5.23
2019-02-12T14:35:12.493Z,5.57
2019-02-12T14:37:41.785Z,7.97
2019-02-12T14:40:11.210Z,5.10
2019-02-12T14:42:40.282Z,7.70
2019-02-12T14:45:11.085Z,5.50
2019-02-12T14:47:41.282Z,8.13
2019-02-12T14:50:11.730Z,8.23
2019-02-12T14:52:40.992Z,7.13
2019-02-12T14:55:10.074Z,9.43
2019-02-12T14:57:39.114Z,10.37
2019-02-12T15:00:16.907Z,11.80
2019-02-12T15:02:45.887Z,9.00
2019-02-12T15:05:14.994Z,7.47
2019-02-12T15:07:44.451Z,10.30
2019-02-12T15:10:13.606Z,10.97
2019-02-12T15:12:42.655Z,13.80
2019-02-12T15:15:12.315Z,5.97
2019-02-12T15:17:41.406Z,10.70
2019-02-12T15:20:10.552Z,7.10
2019-02-12T15:22:39.837Z,9.70
2019-02-12T15:25:09.332Z,6.97
2019-02-12T15:27:38.445Z,6.00
2019-02-12T15:30:09.879Z,8.37
2019-02-12T15:32:38.939Z,7.73
2019-02-12T15:35:09.139Z,9.27
2019-02-12T15:37:38.309Z,6.57
2019-02-12T15:40:09.762Z,6.00
2019-02-12T15:42:39.047Z,6.83
2019-02-12T15:45:10.379Z,9.23
2019-02-12T15:47:39.494Z,5.33
2019-02-12T15:50:09.410Z,8.17
2019-02-12T15:52:38.674Z,6.70
2019-02-12T15:55:09.013Z,9.07
2019-02-12T15:57:38.159Z,9.93
2019-02-12T16:00:16.259Z,7.87
2019-02-12T16:02:46.585Z,6.67
2019-02-12T16:05:15.655Z,5.60
2019-02-12T16:07:47.080Z,7.13
2019-02-12T16:10:16.983Z,3.57
2019-02-12T16:12:48.963Z,3.93
2019-02-12T16:15:21.113Z,7.50
2019-02-12T16:17:49.422Z,7.20
2019-02-12T16:20:18.489Z,6.90
2019-02-12T16:22:47.722Z,5.00
2019-02-12T16:25:16.793Z,5.23
2019-02-12T16:27:46.732Z,5.58
2019-02-12T16:30:16.738Z,6.80
2019-02-12T16:32:45.929Z,5.00
2019-02-12T16:35:15.623Z,8.10
2019-02-12T16:37:44.812Z,4.87
2019-02-12T16:40:14.174Z,3.37
2019-02-12T16:42:43.273Z,7.20
2019-02-12T16:45:15.234Z,2.83
2019-02-12T16:47:44.293Z,5.67
2019-02-12T16:50:13.366Z,5.63
2019-02-12T16:52:42.536Z,5.33
2019-02-12T16:55:11.610Z,3.83
2019-02-12T16:57:40.798Z,6.10
2019-02-12T17:00:17.258Z,5.77
2019-02-12T17:02:46.793Z,7.63
2019-02-12T17:05:15.960Z,4.93
2019-02-12T17:07:45.340Z,4.87
2019-02-12T17:10:14.426Z,5.67
2019-02-12T17:12:43.540Z,8.97
2019-02-12T17:15:12.876Z,4.87
2019-02-12T17:17:41.929Z,3.63
2019-02-12T17:20:13.438Z,4.47
2019-02-12T17:22:42.580Z,8.17
2019-02-12T17:25:11.649Z,4.53
2019-02-12T17:27:43.163Z,6.80
2019-02-12T17:30:12.728Z,5.03
2019-02-12T17:32:41.766Z,5.60
2019-02-12T17:35:11.228Z,7.43
2019-02-12T17:37:40.281Z,5.10
2019-02-12T17:40:10.394Z,7.10
2019-02-12T17:42:39.649Z,5.97
2019-02-12T17:45:10.539Z,6.33
2019-02-12T17:47:39.611Z,6.27
2019-02-12T17:50:09.573Z,6.00
2019-02-12T17:52:39.068Z,5.20
2019-02-12T17:55:08.186Z,6.70
2019-02-12T17:57:37.405Z,5.53
2019-02-12T18:00:12.500Z,9.20
2019-02-12T18:02:41.738Z,9.83
2019-02-12T18:05:10.821Z,5.60
2019-02-12T18:07:39.875Z,5.30
2019-02-12T18:10:09.120Z,6.07
2019-02-12T18:12:38.143Z,8.87
2019-02-12T18:15:07.599Z,5.20
2019-02-12T18:17:36.853Z,5.33
2019-02-12T18:20:06.118Z,5.93
2019-02-12T18:22:35.258Z,6.03
2019-02-12T18:25:05.388Z,6.87
2019-02-12T18:27:34.369Z,5.17
2019-02-12T18:30:03.598Z,7.70
2019-02-12T18:32:32.877Z,6.37
2019-02-12T18:35:01.856Z,8.47
2019-02-12T18:37:30.921Z,6.37
2019-02-12T18:40:00.266Z,6.93
2019-02-12T18:42:29.337Z,8.50
2019-02-12T18:44:58.402Z,5.70
2019-02-12T18:47:27.544Z,6.53
2019-02-12T18:49:56.570Z,5.30
2019-02-12T18:52:26.554Z,7.03
2019-02-12T18:54:55.740Z,8.83
2019-02-12T18:57:24.888Z,5.70
2019-02-12T18:59:53.785Z,6.67
2019-02-12T19:02:23.062Z,6.60
2019-02-12T19:04:52.173Z,8.37
2019-02-12T19:07:21.246Z,8.17
2019-02-12T19:09:50.439Z,7.93
2019-02-12T19:12:19.512Z,6.27
2019-02-12T19:14:48.573Z,7.83
2019-02-12T19:17:17.701Z,6.93
2019-02-12T19:19:46.754Z,5.10
2019-02-12T19:22:15.886Z,7.70
2019-02-12T19:24:45.142Z,8.77
2019-02-12T19:27:14.168Z,8.17
2019-02-12T19:29:43.202Z,9.87
2019-02-12T19:32:12.344Z,11.20
2019-02-12T19:34:42.553Z,8.43
2019-02-12T19:37:11.731Z,15.10
2019-02-12T19:39:40.950Z,9.20
2019-02-12T19:42:10.044Z,10.50
2019-02-12T19:44:39.168Z,14.10
2019-02-12T19:47:08.411Z,9.30
2019-02-12T19:49:37.437Z,8.17
2019-02-12T19:52:06.521Z,9.47
2019-02-12T19:54:38.687Z,10.30
2019-02-12T19:57:07.761Z,10.47
2019-02-12T19:59:36.894Z,7.80
2019-02-12T20:02:06.299Z,10.20
2019-02-12T20:04:35.457Z,9.70
2019-02-12T20:07:04.569Z,8.43
2019-02-12T20:09:33.757Z,6.47
2019-02-12T20:12:03.067Z,10.93
2019-02-12T20:14:32.129Z,9.03
2019-02-12T20:17:01.393Z,14.50
2019-02-12T20:19:30.555Z,8.57
2019-02-12T20:21:59.629Z,11.17
2019-02-12T20:24:28.923Z,10.80
2019-02-12T20:27:06.223Z,8.53
2019-02-12T20:29:29.095Z,11.73
2019-02-12T20:31:58.236Z,10.57
2019-02-12T20:34:27.309Z,13.03
2019-02-12T20:36:56.450Z,10.70
2019-02-12T20:39:25.663Z,11.97
2019-02-12T20:41:54.646Z,13.27
2019-02-12T20:44:23.628Z,14.10
2019-02-12T20:46:52.766Z,10.23
2019-02-12T20:49:21.843Z,11.43
2019-02-12T20:51:50.898Z,11.80
2019-02-12T20:54:20.028Z,12.27
2019-02-12T20:56:49.074Z,17.83
2019-02-12T20:59:17.982Z,15.53
2019-02-12T21:01:47.206Z,11.93
2019-02-12T21:04:16.314Z,11.83
2019-02-12T21:06:45.372Z,14.37
2019-02-12T21:09:14.498Z,14.27
2019-02-12T21:11:43.556Z,13.93
2019-02-12T21:14:12.612Z,14.43
2019-02-12T21:16:41.822Z,14.03
2019-02-12T21:19:10.880Z,13.43
2019-02-12T21:21:40.002Z,14.03
2019-02-12T21:24:09.104Z,12.20
2019-02-12T21:26:38.078Z,13.13
2019-02-12T21:29:07.145Z,13.53
2019-02-12T21:31:36.339Z,13.00
2019-02-12T21:34:05.471Z,12.97
2019-02-12T21:36:34.577Z,11.40
2019-02-12T21:39:04.863Z,14.10
2019-02-12T21:41:33.978Z,14.70
2019-02-12T21:44:03.117Z,18.30
2019-02-12T21:46:32.457Z,11.97
2019-02-12T21:49:01.365Z,9.80
2019-02-12T21:51:30.355Z,15.33
2019-02-12T21:53:59.639Z,10.87
2019-02-12T21:56:47.727Z,11.30
2019-02-12T21:59:17.091Z,10.70
2019-02-12T22:01:46.147Z,13.30
2019-02-12T22:04:15.243Z,10.10
2019-02-12T22:06:44.571Z,12.67
2019-02-12T22:09:13.645Z,11.17
2019-02-12T22:11:42.634Z,11.67
2019-02-12T22:14:11.857Z,11.93
2019-02-12T22:16:40.925Z,11.57
2019-02-12T22:19:10.003Z,12.77
2019-02-12T22:21:39.245Z,9.17
2019-02-12T22:24:08.288Z,9.30
2019-02-12T22:26:37.342Z,12.80
2019-02-12T22:29:06.532Z,9.77
2019-02-12T22:31:35.584Z,11.20
2019-02-12T22:34:04.623Z,9.40
2019-02-12T22:36:33.933Z,10.23
2019-02-12T22:39:04.179Z,11.07
2019-02-12T22:41:33.279Z,12.03
2019-02-12T22:44:02.538Z,9.90
2019-02-12T22:46:31.614Z,11.20
2019-02-12T22:49:00.653Z,9.80
2019-02-12T22:51:29.823Z,11.83
2019-02-12T22:53:58.874Z,11.50
2019-02-12T22:56:28.161Z,10.47
2019-02-12T22:58:57.313Z,9.60
2019-02-12T23:01:35.885Z,12.20
2019-02-12T23:04:05.328Z,10.73
2019-02-12T23:06:34.615Z,10.77
2019-02-12T23:09:05.427Z,10.80
2019-02-12T23:11:34.628Z,13.07
2019-02-12T23:14:03.701Z,11.60
2019-02-12T23:16:32.699Z,11.07
2019-02-12T23:19:01.843Z,12.70
2019-02-12T23:21:30.848Z,11.90
2019-02-12T23:23:59.846Z,11.53
2019-02-12T23:26:28.981Z,10.17
2019-02-12T23:28:57.894Z,11.77
2019-02-12T23:31:26.870Z,10.83
2019-02-12T23:33:56.215Z,16.37
2019-02-12T23:36:25.268Z,12.43
2019-02-12T23:38:54.243Z,9.97
2019-02-12T23:41:23.400Z,9.47
2019-02-12T23:43:52.439Z,8.83
2019-02-12T23:46:21.430Z,10.57
2019-02-12T23:48:50.577Z,8.37
2019-02-12T23:51:19.563Z,10.17
2019-02-12T23:53:48.541Z,9.13
2019-02-12T23:56:17.864Z,10.33
2019-02-12T23:58:46.952Z,11.63
